sensor_id;sensor_type;location;lat;lon;timestamp;pressure;altitude;pressure_sealevel;temperature;humidity
45345;BME280;31078;48.304;11.896;2023-05-21T00:02:10;95939.06;;;14.94;80.86
45345;BME280;31078;48.304;11.896;2023-05-21T00:04:39;95936.31;;;14.94;80.67
45345;BME280;31078;48.304;11.896;2023-05-21T00:07:06;95929.22;;;14.93;80.56
45345;BME280;31078;48.304;11.896;2023-05-21T00:09:35;95920.06;;;14.85;80.93
45345;BME280;31078;48.304;11.896;2023-05-21T00:12:02;95921.09;;;14.96;80.54
45345;BME280;31078;48.304;11.896;2023-05-21T00:14:29;95921.88;;;14.97;80.35
45345;BME280;31078;48.304;11.896;2023-05-21T00:16:56;95919.59;;;14.99;80.19
45345;BME280;31078;48.304;11.896;2023-05-21T00:19:23;95918.53;;;14.87;80.26
45345;BME280;31078;48.304;11.896;2023-05-21T00:21:51;95914.84;;;14.80;80.93
45345;BME280;31078;48.304;11.896;2023-05-21T00:24:17;95919.81;;;14.74;80.76
45345;BME280;31078;48.304;11.896;2023-05-21T00:26:45;95910.41;;;14.75;81.17
45345;BME280;31078;48.304;11.896;2023-05-21T00:29:12;95912.53;;;14.66;80.46
45345;BME280;31078;48.304;11.896;2023-05-21T00:31:38;95908.50;;;14.60;80.74
45345;BME280;31078;48.304;11.896;2023-05-21T00:34:05;95905.13;;;14.67;79.87
45345;BME280;31078;48.304;11.896;2023-05-21T00:36:31;95909.66;;;14.59;79.75
45345;BME280;31078;48.304;11.896;2023-05-21T00:38:59;95904.34;;;14.50;80.01
45345;BME280;31078;48.304;11.896;2023-05-21T00:41:26;95893.63;;;14.61;79.67
45345;BME280;31078;48.304;11.896;2023-05-21T00:43:55;95900.59;;;14.43;79.56
45345;BME280;31078;48.304;11.896;2023-05-21T00:46:24;95898.06;;;14.50;79.50
45345;BME280;31078;48.304;11.896;2023-05-21T00:48:52;95891.88;;;14.53;78.95
45345;BME280;31078;48.304;11.896;2023-05-21T00:51:19;95891.88;;;14.53;79.20
45345;BME280;31078;48.304;11.896;2023-05-21T00:53:48;95893.28;;;14.47;78.63
45345;BME280;31078;48.304;11.896;2023-05-21T00:56:15;95887.59;;;14.40;78.80
45345;BME280;31078;48.304;11.896;2023-05-21T00:58:43;95890.88;;;14.29;79.01
45345;BME280;31078;48.304;11.896;2023-05-21T01:01:11;95890.06;;;14.45;78.70
45345;BME280;31078;48.304;11.896;2023-05-21T01:03:39;95887.09;;;14.50;78.85
45345;BME280;31078;48.304;11.896;2023-05-21T01:06:06;95892.47;;;14.46;78.02
45345;BME280;31078;48.304;11.896;2023-05-21T01:08:38;95888.50;;;14.44;77.91
45345;BME280;31078;48.304;11.896;2023-05-21T01:11:07;95889.41;;;14.48;77.98
45345;BME280;31078;48.304;11.896;2023-05-21T01:13:37;95887.59;;;14.40;77.54
45345;BME280;31078;48.304;11.896;2023-05-21T01:16:05;95891.66;;;14.46;77.79
45345;BME280;31078;48.304;11.896;2023-05-21T01:18:34;95890.31;;;14.52;77.70
45345;BME280;31078;48.304;11.896;2023-05-21T01:21:02;95887.09;;;14.50;77.19
45345;BME280;31078;48.304;11.896;2023-05-21T01:23:30;95888.06;;;14.42;77.46
45345;BME280;31078;48.304;11.896;2023-05-21T01:25:57;95888.50;;;14.44;77.17
45345;BME280;31078;48.304;11.896;2023-05-21T01:28:24;95890.06;;;14.45;77.84
45345;BME280;31078;48.304;11.896;2023-05-21T01:30:50;95886.66;;;14.32;77.77
45345;BME280;31078;48.304;11.896;2023-05-21T01:33:20;95894.59;;;14.37;77.92
45345;BME280;31078;48.304;11.896;2023-05-21T01:35:53;95889.91;;;14.38;77.81
45345;BME280;31078;48.304;11.896;2023-05-21T01:38:28;95890.88;;;14.29;77.78
45345;BME280;31078;48.304;11.896;2023-05-21T01:41:00;95884.53;;;14.25;78.07
45345;BME280;31078;48.304;11.896;2023-05-21T01:43:30;95886.53;;;14.28;78.12
45345;BME280;31078;48.304;11.896;2023-05-21T01:45:58;95890.19;;;14.32;77.52
45345;BME280;31078;48.304;11.896;2023-05-21T01:48:27;95888.13;;;14.29;77.75
45345;BME280;31078;48.304;11.896;2023-05-21T01:50:54;95885.59;;;14.36;77.23
45345;BME280;31078;48.304;11.896;2023-05-21T01:53:23;95887.69;;;14.43;77.50
45345;BME280;31078;48.304;11.896;2023-05-21T01:55:49;95883.19;;;14.35;77.18
45345;BME280;31078;48.304;11.896;2023-05-21T01:58:17;95889.13;;;14.37;77.26
45345;BME280;31078;48.304;11.896;2023-05-21T02:00:45;95887.97;;;14.22;76.48
45345;BME280;31078;48.304;11.896;2023-05-21T02:03:12;95881.69;;;14.22;76.89
45345;BME280;31078;48.304;11.896;2023-05-21T02:05:40;95881.06;;;14.28;76.82
45345;BME280;31078;48.304;11.896;2023-05-21T02:08:07;95884.78;;;14.20;76.70
45345;BME280;31078;48.304;11.896;2023-05-21T02:10:33;95876.13;;;14.18;76.67
45345;BME280;31078;48.304;11.896;2023-05-21T02:13:00;95883.00;;;14.12;76.63
45345;BME280;31078;48.304;11.896;2023-05-21T02:15:28;95885.50;;;14.17;76.57
45345;BME280;31078;48.304;11.896;2023-05-21T02:17:54;95879.84;;;14.10;76.74
45345;BME280;31078;48.304;11.896;2023-05-21T02:20:22;95882.13;;;14.08;76.04
45345;BME280;31078;48.304;11.896;2023-05-21T02:22:48;95877.34;;;13.89;76.32
45345;BME280;31078;48.304;11.896;2023-05-21T02:25:16;95885.56;;;13.89;76.33
45345;BME280;31078;48.304;11.896;2023-05-21T02:27:44;95881.31;;;13.92;76.74
45345;BME280;31078;48.304;11.896;2023-05-21T02:30:12;95881.66;;;13.90;76.64
45345;BME280;31078;48.304;11.896;2023-05-21T02:32:41;95889.34;;;13.84;76.91
45345;BME280;31078;48.304;11.896;2023-05-21T02:35:10;95879.31;;;13.76;77.26
45345;BME280;31078;48.304;11.896;2023-05-21T02:37:37;95882.16;;;13.80;77.26
45345;BME280;31078;48.304;11.896;2023-05-21T02:40:06;95874.91;;;13.72;77.24
45345;BME280;31078;48.304;11.896;2023-05-21T02:42:34;95873.31;;;13.71;76.73
45345;BME280;31078;48.304;11.896;2023-05-21T02:45:02;95872.34;;;13.63;77.21
45345;BME280;31078;48.304;11.896;2023-05-21T02:47:31;95878.06;;;13.58;76.60
45345;BME280;31078;48.304;11.896;2023-05-21T02:49:59;95872.22;;;13.60;76.50
45345;BME280;31078;48.304;11.896;2023-05-21T02:52:27;95866.16;;;13.66;76.33
45345;BME280;31078;48.304;11.896;2023-05-21T02:54:53;95872.41;;;13.67;76.38
45345;BME280;31078;48.304;11.896;2023-05-21T02:57:20;95873.22;;;13.67;75.82
45345;BME280;31078;48.304;11.896;2023-05-21T02:59:46;95866.66;;;13.56;75.70
45345;BME280;31078;48.304;11.896;2023-05-21T03:02:13;95877.16;;;13.54;75.48
45345;BME280;31078;48.304;11.896;2023-05-21T03:04:39;95870.53;;;13.55;74.82
45345;BME280;31078;48.304;11.896;2023-05-21T03:07:11;95866.75;;;13.60;75.08
45345;BME280;31078;48.304;11.896;2023-05-21T03:09:39;95865.19;;;13.58;75.15
45345;BME280;31078;48.304;11.896;2023-05-21T03:12:06;95873.28;;;13.55;74.78
45345;BME280;31078;48.304;11.896;2023-05-21T03:14:32;95869.13;;;13.61;75.91
45345;BME280;31078;48.304;11.896;2023-05-21T03:16:59;95861.16;;;13.68;74.73
45345;BME280;31078;48.304;11.896;2023-05-21T03:19:27;95869.88;;;13.74;74.68
45345;BME280;31078;48.304;11.896;2023-05-21T03:21:54;95868.63;;;13.71;75.77
45345;BME280;31078;48.304;11.896;2023-05-21T03:24:22;95868.63;;;13.71;75.20
45345;BME280;31078;48.304;11.896;2023-05-21T03:26:48;95866.75;;;13.60;74.98
45345;BME280;31078;48.304;11.896;2023-05-21T03:29:15;95864.28;;;13.54;75.55
45345;BME280;31078;48.304;11.896;2023-05-21T03:31:41;95862.06;;;13.60;75.74
45345;BME280;31078;48.304;11.896;2023-05-21T03:34:08;95861.53;;;13.54;76.17
45345;BME280;31078;48.304;11.896;2023-05-21T03:36:34;95862.56;;;13.50;76.34
45345;BME280;31078;48.304;11.896;2023-05-21T03:39:01;95857.09;;;13.50;76.03
45345;BME280;31078;48.304;11.896;2023-05-21T03:41:29;95858.25;;;13.49;76.10
45345;BME280;31078;48.304;11.896;2023-05-21T03:43:55;95855.53;;;13.49;76.33
45345;BME280;31078;48.304;11.896;2023-05-21T03:46:22;95857.59;;;13.40;75.99
45345;BME280;31078;48.304;11.896;2023-05-21T03:48:48;95855.59;;;13.37;76.16
45345;BME280;31078;48.304;11.896;2023-05-21T03:51:15;95860.28;;;13.24;76.63
45345;BME280;31078;48.304;11.896;2023-05-21T03:53:42;95862.09;;;13.32;76.26
45345;BME280;31078;48.304;11.896;2023-05-21T03:56:08;95850.50;;;13.23;76.22
45345;BME280;31078;48.304;11.896;2023-05-21T03:58:36;95864.03;;;13.31;76.29
45345;BME280;31078;48.304;11.896;2023-05-21T04:01:03;95869.03;;;13.29;77.18
45345;BME280;31078;48.304;11.896;2023-05-21T04:03:29;95862.88;;;13.32;76.37
45345;BME280;31078;48.304;11.896;2023-05-21T04:05:57;95859.13;;;13.25;76.22
45345;BME280;31078;48.304;11.896;2023-05-21T04:08:23;95863.13;;;13.27;76.39
45345;BME280;31078;48.304;11.896;2023-05-21T04:10:50;95862.41;;;13.30;76.45
45345;BME280;31078;48.304;11.896;2023-05-21T04:13:17;95857.72;;;13.43;75.96
45345;BME280;31078;48.304;11.896;2023-05-21T04:15:44;95863.06;;;13.40;75.48
45345;BME280;31078;48.304;11.896;2023-05-21T04:18:11;95870.34;;;13.48;76.76
45345;BME280;31078;48.304;11.896;2023-05-21T04:20:39;95864.38;;;13.58;75.63
45345;BME280;31078;48.304;11.896;2023-05-21T04:23:06;95873.91;;;13.64;75.75
45345;BME280;31078;48.304;11.896;2023-05-21T04:25:33;95875.91;;;13.51;76.33
45345;BME280;31078;48.304;11.896;2023-05-21T04:28:00;95876.50;;;13.45;76.74
45345;BME280;31078;48.304;11.896;2023-05-21T04:30:26;95868.94;;;13.54;77.32
45345;BME280;31078;48.304;11.896;2023-05-21T04:32:54;95875.56;;;13.53;77.19
45345;BME280;31078;48.304;11.896;2023-05-21T04:35:22;95883.66;;;13.49;77.67
45345;BME280;31078;48.304;11.896;2023-05-21T04:37:48;95877.50;;;13.52;77.69
45345;BME280;31078;48.304;11.896;2023-05-21T04:40:16;95879.59;;;13.71;77.65
45345;BME280;31078;48.304;11.896;2023-05-21T04:42:48;95875.50;;;13.65;77.84
45345;BME280;31078;48.304;11.896;2023-05-21T04:45:15;95877.09;;;13.66;78.11
45345;BME280;31078;48.304;11.896;2023-05-21T04:47:42;95887.19;;;13.78;77.96
45345;BME280;31078;48.304;11.896;2023-05-21T04:50:10;95882.50;;;13.63;78.65
45345;BME280;31078;48.304;11.896;2023-05-21T04:52:38;95882.06;;;13.76;78.92
45345;BME280;31078;48.304;11.896;2023-05-21T04:55:05;95880.09;;;13.61;79.43
45345;BME280;31078;48.304;11.896;2023-05-21T04:57:32;95887.34;;;13.69;78.91
45345;BME280;31078;48.304;11.896;2023-05-21T04:59:59;95890.34;;;13.64;79.88
45345;BME280;31078;48.304;11.896;2023-05-21T05:02:26;95882.13;;;13.64;78.92
45345;BME280;31078;48.304;11.896;2023-05-21T05:04:52;95877.06;;;13.78;78.78
45345;BME280;31078;48.304;11.896;2023-05-21T05:07:20;95883.34;;;13.67;78.96
45345;BME280;31078;48.304;11.896;2023-05-21T05:09:46;95883.72;;;13.65;79.28
45345;BME280;31078;48.304;11.896;2023-05-21T05:12:13;95887.66;;;13.80;79.06
45345;BME280;31078;48.304;11.896;2023-05-21T05:14:39;95883.47;;;13.70;79.24
45345;BME280;31078;48.304;11.896;2023-05-21T05:17:06;95885.00;;;13.83;79.47
45345;BME280;31078;48.304;11.896;2023-05-21T05:19:34;95886.06;;;13.79;79.55
45345;BME280;31078;48.304;11.896;2023-05-21T05:22:01;95883.31;;;13.79;79.93
45345;BME280;31078;48.304;11.896;2023-05-21T05:24:29;95880.66;;;13.82;79.80
45345;BME280;31078;48.304;11.896;2023-05-21T05:26:56;95881.72;;;13.94;79.83
45345;BME280;31078;48.304;11.896;2023-05-21T05:29:23;95878.56;;;13.92;79.65
45345;BME280;31078;48.304;11.896;2023-05-21T05:31:49;95886.25;;;14.02;79.02
45345;BME280;31078;48.304;11.896;2023-05-21T05:34:16;95883.69;;;14.09;79.79
45345;BME280;31078;48.304;11.896;2023-05-21T05:36:42;95889.38;;;14.16;79.27
45345;BME280;31078;48.304;11.896;2023-05-21T05:39:09;95877.94;;;13.98;78.54
45345;BME280;31078;48.304;11.896;2023-05-21T05:41:37;95881.50;;;14.15;78.60
45345;BME280;31078;48.304;11.896;2023-05-21T05:44:04;95879.59;;;14.31;78.29
45345;BME280;31078;48.304;11.896;2023-05-21T05:46:30;95877.31;;;14.49;78.19
45345;BME280;31078;48.304;11.896;2023-05-21T05:48:56;95886.81;;;14.39;77.99
45345;BME280;31078;48.304;11.896;2023-05-21T05:51:23;95883.00;;;14.44;78.23
45345;BME280;31078;48.304;11.896;2023-05-21T05:53:50;95885.53;;;14.49;78.46
45345;BME280;31078;48.304;11.896;2023-05-21T05:56:16;95889.16;;;14.53;78.52
45345;BME280;31078;48.304;11.896;2023-05-21T05:58:44;95894.16;;;14.51;78.35
45345;BME280;31078;48.304;11.896;2023-05-21T06:01:10;95896.09;;;14.66;77.98
45345;BME280;31078;48.304;11.896;2023-05-21T06:03:37;95892.22;;;14.67;78.19
45345;BME280;31078;48.304;11.896;2023-05-21T06:06:04;95894.00;;;14.59;76.93
45345;BME280;31078;48.304;11.896;2023-05-21T06:08:30;95896.28;;;14.73;77.05
45345;BME280;31078;48.304;11.896;2023-05-21T06:10:58;95894.53;;;14.65;76.41
45345;BME280;31078;48.304;11.896;2023-05-21T06:13:25;95905.47;;;14.65;76.90
45345;BME280;31078;48.304;11.896;2023-05-21T06:15:53;95895.00;;;14.86;77.41
45345;BME280;31078;48.304;11.896;2023-05-21T06:18:20;95904.66;;;14.80;77.39
45345;BME280;31078;48.304;11.896;2023-05-21T06:20:46;95897.69;;;14.83;77.35
45345;BME280;31078;48.304;11.896;2023-05-21T06:23:13;95902.97;;;14.92;76.22
45345;BME280;31078;48.304;11.896;2023-05-21T06:25:39;95889.72;;;14.94;76.14
45345;BME280;31078;48.304;11.896;2023-05-21T06:28:06;95902.81;;;14.84;76.54
45345;BME280;31078;48.304;11.896;2023-05-21T06:30:32;95894.41;;;14.93;76.45
45345;BME280;31078;48.304;11.896;2023-05-21T06:33:00;95893.16;;;14.91;76.31
45345;BME280;31078;48.304;11.896;2023-05-21T06:35:26;95897.66;;;14.99;77.38
45345;BME280;31078;48.304;11.896;2023-05-21T06:37:53;95883.81;;;15.11;77.53
45345;BME280;31078;48.304;11.896;2023-05-21T06:40:20;95887.88;;;15.17;77.17
45345;BME280;31078;48.304;11.896;2023-05-21T06:42:47;95882.38;;;15.17;77.21
45345;BME280;31078;48.304;11.896;2023-05-21T06:45:13;95893.22;;;15.10;76.98
45345;BME280;31078;48.304;11.896;2023-05-21T06:47:40;95885.13;;;15.17;77.04
45345;BME280;31078;48.304;11.896;2023-05-21T06:50:08;95887.59;;;15.22;77.53
45345;BME280;31078;48.304;11.896;2023-05-21T06:52:35;95892.88;;;15.31;77.11
45345;BME280;31078;48.304;11.896;2023-05-21T06:55:01;95888.09;;;15.28;78.11
45345;BME280;31078;48.304;11.896;2023-05-21T06:57:29;95890.47;;;15.29;78.76
45345;BME280;31078;48.304;11.896;2023-05-21T06:59:55;95893.59;;;15.28;77.46
45345;BME280;31078;48.304;11.896;2023-05-21T07:02:22;95887.53;;;15.38;77.52
45345;BME280;31078;48.304;11.896;2023-05-21T07:04:48;95895.06;;;15.41;77.24
45345;BME280;31078;48.304;11.896;2023-05-21T07:07:17;95897.56;;;15.50;77.57
45345;BME280;31078;48.304;11.896;2023-05-21T07:09:43;95897.16;;;15.48;77.31
45345;BME280;31078;48.304;11.896;2023-05-21T07:12:10;95891.09;;;15.58;77.15
45345;BME280;31078;48.304;11.896;2023-05-21T07:14:36;95891.16;;;15.61;76.72
45345;BME280;31078;48.304;11.896;2023-05-21T07:17:03;95889.66;;;15.64;77.08
45345;BME280;31078;48.304;11.896;2023-05-21T07:19:30;95884.31;;;15.71;77.91
45345;BME280;31078;48.304;11.896;2023-05-21T07:21:56;95882.88;;;15.77;76.73
45345;BME280;31078;48.304;11.896;2023-05-21T07:24:24;95880.34;;;15.88;76.92
45345;BME280;31078;48.304;11.896;2023-05-21T07:26:51;95885.56;;;15.97;77.63
45345;BME280;31078;48.304;11.896;2023-05-21T07:29:18;95883.84;;;16.08;76.94
45345;BME280;31078;48.304;11.896;2023-05-21T07:31:44;95885.16;;;16.17;77.03
45345;BME280;31078;48.304;11.896;2023-05-21T07:34:11;95884.53;;;16.24;77.13
45345;BME280;31078;48.304;11.896;2023-05-21T07:36:37;95884.25;;;16.33;76.65
45345;BME280;31078;48.304;11.896;2023-05-21T07:39:04;95882.88;;;16.42;74.89
45345;BME280;31078;48.304;11.896;2023-05-21T07:41:32;95890.56;;;16.56;76.12
45345;BME280;31078;48.304;11.896;2023-05-21T07:43:58;95878.16;;;16.66;75.05
45345;BME280;31078;48.304;11.896;2023-05-21T07:46:25;95882.63;;;16.74;74.69
45345;BME280;31078;48.304;11.896;2023-05-21T07:48:52;95885.59;;;16.88;74.80
45345;BME280;31078;48.304;11.896;2023-05-21T07:51:18;95880.81;;;17.12;74.76
45345;BME280;31078;48.304;11.896;2023-05-21T07:53:45;95871.81;;;17.15;72.13
45345;BME280;31078;48.304;11.896;2023-05-21T07:56:11;95883.03;;;17.29;70.83
45345;BME280;31078;48.304;11.896;2023-05-21T07:58:39;95878.50;;;17.44;69.18
45345;BME280;31078;48.304;11.896;2023-05-21T08:01:08;95884.63;;;17.64;66.29
45345;BME280;31078;48.304;11.896;2023-05-21T08:03:34;95879.00;;;17.83;65.81
45345;BME280;31078;48.304;11.896;2023-05-21T08:06:01;95889.50;;;18.08;63.08
45345;BME280;31078;48.304;11.896;2023-05-21T08:08:27;95887.41;;;18.35;61.74
45345;BME280;31078;48.304;11.896;2023-05-21T08:10:53;95891.69;;;18.69;61.30
45345;BME280;31078;48.304;11.896;2023-05-21T08:13:20;95894.38;;;19.14;59.33
45345;BME280;31078;48.304;11.896;2023-05-21T08:15:48;95897.38;;;19.56;58.45
45345;BME280;31078;48.304;11.896;2023-05-21T08:18:14;95889.22;;;19.89;55.81
45345;BME280;31078;48.304;11.896;2023-05-21T08:20:42;95901.94;;;20.07;52.93
45345;BME280;31078;48.304;11.896;2023-05-21T08:23:09;95889.34;;;20.28;54.80
45345;BME280;31078;48.304;11.896;2023-05-21T08:25:35;95904.41;;;20.41;53.25
45345;BME280;31078;48.304;11.896;2023-05-21T08:28:02;95898.91;;;20.52;52.62
45345;BME280;31078;48.304;11.896;2023-05-21T08:30:28;95901.28;;;20.61;52.54
45345;BME280;31078;48.304;11.896;2023-05-21T08:32:56;95900.50;;;20.64;54.17
45345;BME280;31078;48.304;11.896;2023-05-21T08:35:23;95898.50;;;20.64;51.78
45345;BME280;31078;48.304;11.896;2023-05-21T08:37:50;95898.91;;;20.91;53.55
45345;BME280;31078;48.304;11.896;2023-05-21T08:40:16;95897.31;;;21.26;52.96
45345;BME280;31078;48.304;11.896;2023-05-21T08:42:44;95900.47;;;21.46;50.93
45345;BME280;31078;48.304;11.896;2023-05-21T08:45:12;95897.59;;;21.71;52.80
45345;BME280;31078;48.304;11.896;2023-05-21T08:47:40;95897.16;;;21.79;48.46
45345;BME280;31078;48.304;11.896;2023-05-21T08:50:34;95887.53;;;22.12;49.82
45345;BME280;31078;48.304;11.896;2023-05-21T08:53:00;95891.38;;;22.33;48.37
45345;BME280;31078;48.304;11.896;2023-05-21T08:55:27;95892.06;;;22.51;47.39
45345;BME280;31078;48.304;11.896;2023-05-21T08:57:53;95904.25;;;22.64;43.53
45345;BME280;31078;48.304;11.896;2023-05-21T09:00:20;95902.06;;;22.97;45.27
45345;BME280;31078;48.304;11.896;2023-05-21T09:02:47;95897.94;;;23.12;43.06
45345;BME280;31078;48.304;11.896;2023-05-21T09:05:14;95904.16;;;23.27;42.56
45345;BME280;31078;48.304;11.896;2023-05-21T09:07:46;95897.66;;;23.41;43.78
45345;BME280;31078;48.304;11.896;2023-05-21T09:10:16;95903.13;;;23.52;41.42
45345;BME280;31078;48.304;11.896;2023-05-21T09:12:44;95909.38;;;23.59;41.57
45345;BME280;31078;48.304;11.896;2023-05-21T09:15:12;95903.63;;;23.81;43.72
45345;BME280;31078;48.304;11.896;2023-05-21T09:17:39;95903.81;;;23.59;41.62
45345;BME280;31078;48.304;11.896;2023-05-21T09:20:07;95906.16;;;23.64;42.22
45345;BME280;31078;48.304;11.896;2023-05-21T09:22:37;95912.00;;;23.36;41.46
45345;BME280;31078;48.304;11.896;2023-05-21T09:25:08;95916.00;;;23.35;41.96
45345;BME280;31078;48.304;11.896;2023-05-21T09:27:35;95917.66;;;23.29;44.35
45345;BME280;31078;48.304;11.896;2023-05-21T09:30:02;95910.50;;;23.28;43.77
45345;BME280;31078;48.304;11.896;2023-05-21T09:32:30;95904.81;;;23.38;46.82
45345;BME280;31078;48.304;11.896;2023-05-21T09:35:05;95911.47;;;23.07;43.46
45345;BME280;31078;48.304;11.896;2023-05-21T09:37:36;95916.34;;;22.96;43.43
45345;BME280;31078;48.304;11.896;2023-05-21T09:40:10;95920.34;;;22.91;44.94
45345;BME280;31078;48.304;11.896;2023-05-21T09:42:38;95904.34;;;23.06;45.35
45345;BME280;31078;48.304;11.896;2023-05-21T09:45:06;95911.44;;;23.14;46.39
45345;BME280;31078;48.304;11.896;2023-05-21T09:47:33;95912.66;;;23.09;46.96
45345;BME280;31078;48.304;11.896;2023-05-21T09:49:59;95912.13;;;23.22;46.45
45345;BME280;31078;48.304;11.896;2023-05-21T09:52:26;95908.91;;;23.27;47.43
45345;BME280;31078;48.304;11.896;2023-05-21T09:54:55;95915.47;;;23.47;48.29
45345;BME280;31078;48.304;11.896;2023-05-21T09:57:26;95905.88;;;23.55;45.52
45345;BME280;31078;48.304;11.896;2023-05-21T09:59:53;95904.31;;;23.51;45.58
45345;BME280;31078;48.304;11.896;2023-05-21T10:02:21;95907.22;;;23.78;48.20
45345;BME280;31078;48.304;11.896;2023-05-21T10:04:49;95907.84;;;23.55;45.55
45345;BME280;31078;48.304;11.896;2023-05-21T10:07:17;95904.31;;;23.51;43.16
45345;BME280;31078;48.304;11.896;2023-05-21T10:09:46;95918.09;;;23.61;45.33
45345;BME280;31078;48.304;11.896;2023-05-21T10:12:15;95904.13;;;23.31;45.30
45345;BME280;31078;48.304;11.896;2023-05-21T10:14:45;95908.47;;;23.32;47.96
45345;BME280;31078;48.304;11.896;2023-05-21T10:17:16;95898.03;;;23.43;48.21
45345;BME280;31078;48.304;11.896;2023-05-21T10:19:45;95904.00;;;23.41;47.83
45345;BME280;31078;48.304;11.896;2023-05-21T10:22:12;95907.22;;;23.40;46.03
45345;BME280;31078;48.304;11.896;2023-05-21T10:24:39;95896.84;;;23.44;46.48
45345;BME280;31078;48.304;11.896;2023-05-21T10:27:06;95907.91;;;23.48;46.89
45345;BME280;31078;48.304;11.896;2023-05-21T10:29:33;95896.78;;;23.51;43.00
45345;BME280;31078;48.304;11.896;2023-05-21T10:32:04;95896.91;;;23.75;45.15
45345;BME280;31078;48.304;11.896;2023-05-21T10:34:31;95897.84;;;23.64;40.15
45345;BME280;31078;48.304;11.896;2023-05-21T10:36:59;95895.34;;;23.74;41.50
45345;BME280;31078;48.304;11.896;2023-05-21T10:39:28;95888.59;;;23.75;42.90
45345;BME280;31078;48.304;11.896;2023-05-21T10:42:06;95886.19;;;23.77;44.72
45345;BME280;31078;48.304;11.896;2023-05-21T10:44:43;95886.09;;;23.84;43.11
45345;BME280;31078;48.304;11.896;2023-05-21T10:47:35;95890.91;;;23.80;42.72
45345;BME280;31078;48.304;11.896;2023-05-21T10:50:19;95889.50;;;23.64;42.70
45345;BME280;31078;48.304;11.896;2023-05-21T10:53:02;95887.69;;;23.47;43.25
45345;BME280;31078;48.304;11.896;2023-05-21T10:55:45;95883.25;;;23.53;44.13
45345;BME280;31078;48.304;11.896;2023-05-21T10:58:31;95881.66;;;23.52;43.83
45345;BME280;31078;48.304;11.896;2023-05-21T11:01:04;95879.56;;;23.67;43.17
45345;BME280;31078;48.304;11.896;2023-05-21T11:03:33;95887.00;;;23.74;40.67
45345;BME280;31078;48.304;11.896;2023-05-21T11:06:01;95879.75;;;23.83;43.09
45345;BME280;31078;48.304;11.896;2023-05-21T11:08:30;95887.63;;;23.88;42.17
45345;BME280;31078;48.304;11.896;2023-05-21T11:11:00;95881.53;;;23.66;39.88
45345;BME280;31078;48.304;11.896;2023-05-21T11:13:28;95879.19;;;23.61;40.27
45345;BME280;31078;48.304;11.896;2023-05-21T11:16:06;95878.41;;;23.61;39.85
45345;BME280;31078;48.304;11.896;2023-05-21T11:19:00;95882.38;;;23.63;40.75
45345;BME280;31078;48.304;11.896;2023-05-21T11:21:30;95884.75;;;23.61;41.34
45345;BME280;31078;48.304;11.896;2023-05-21T11:24:01;95879.88;;;23.73;43.58
45345;BME280;31078;48.304;11.896;2023-05-21T11:26:31;95871.44;;;23.80;43.64
45345;BME280;31078;48.304;11.896;2023-05-21T11:29:16;95869.25;;;23.98;43.52
45345;BME280;31078;48.304;11.896;2023-05-21T11:31:44;95876.22;;;24.10;42.32
45345;BME280;31078;48.304;11.896;2023-05-21T11:34:13;95874.41;;;24.27;40.61
45345;BME280;31078;48.304;11.896;2023-05-21T11:36:42;95871.75;;;24.46;43.42
45345;BME280;31078;48.304;11.896;2023-05-21T11:39:09;95871.72;;;24.50;39.72
45345;BME280;31078;48.304;11.896;2023-05-21T11:41:50;95873.19;;;24.58;37.49
45345;BME280;31078;48.304;11.896;2023-05-21T11:44:17;95871.50;;;24.64;38.92
45345;BME280;31078;48.304;11.896;2023-05-21T11:46:43;95860.25;;;24.71;42.20
45345;BME280;31078;48.304;11.896;2023-05-21T11:49:14;95873.22;;;24.82;37.95
45345;BME280;31078;48.304;11.896;2023-05-21T11:51:41;95865.47;;;24.93;37.28
45345;BME280;31078;48.304;11.896;2023-05-21T11:54:09;95866.94;;;25.01;36.44
45345;BME280;31078;48.304;11.896;2023-05-21T11:56:37;95866.63;;;25.19;39.18
45345;BME280;31078;48.304;11.896;2023-05-21T11:59:13;95865.84;;;25.18;39.52
45345;BME280;31078;48.304;11.896;2023-05-21T12:01:41;95861.13;;;25.15;37.11
45345;BME280;31078;48.304;11.896;2023-05-21T12:04:07;95854.28;;;25.20;37.49
45345;BME280;31078;48.304;11.896;2023-05-21T12:06:36;95857.00;;;25.23;36.00
45345;BME280;31078;48.304;11.896;2023-05-21T12:09:07;95862.72;;;25.36;37.48
45345;BME280;31078;48.304;11.896;2023-05-21T12:11:34;95864.63;;;25.43;37.04
45345;BME280;31078;48.304;11.896;2023-05-21T12:14:01;95865.31;;;25.47;37.32
45345;BME280;31078;48.304;11.896;2023-05-21T12:16:27;95862.97;;;25.45;37.85
45345;BME280;31078;48.304;11.896;2023-05-21T12:18:54;95869.31;;;25.46;38.41
45345;BME280;31078;48.304;11.896;2023-05-21T12:21:22;95869.47;;;25.39;36.41
45345;BME280;31078;48.304;11.896;2023-05-21T12:23:49;95862.97;;;25.45;38.30
45345;BME280;31078;48.304;11.896;2023-05-21T12:26:16;95870.69;;;25.38;37.72
45345;BME280;31078;48.304;11.896;2023-05-21T12:28:43;95867.59;;;25.32;37.94
45345;BME280;31078;48.304;11.896;2023-05-21T12:31:13;95861.38;;;25.24;35.82
45345;BME280;31078;48.304;11.896;2023-05-21T12:33:43;95857.94;;;25.37;40.74
45345;BME280;31078;48.304;11.896;2023-05-21T12:36:09;95855.38;;;25.46;37.46
45345;BME280;31078;48.304;11.896;2023-05-21T12:38:36;95855.84;;;25.64;37.33
45345;BME280;31078;48.304;11.896;2023-05-21T12:41:04;95856.19;;;25.66;39.03
45345;BME280;31078;48.304;11.896;2023-05-21T12:43:31;95854.78;;;25.58;36.80
45345;BME280;31078;48.304;11.896;2023-05-21T12:45:58;95865.19;;;25.54;37.71
45345;BME280;31078;48.304;11.896;2023-05-21T12:48:24;95856.47;;;25.52;36.66
45345;BME280;31078;48.304;11.896;2023-05-21T12:50:53;95862.69;;;25.60;39.12
45345;BME280;31078;48.304;11.896;2023-05-21T12:53:19;95866.19;;;25.44;37.26
45345;BME280;31078;48.304;11.896;2023-05-21T12:55:46;95857.81;;;25.44;39.87